createdAt,value
2022-11-24T00:02:26.810Z,96563.13
2022-11-24T00:06:30.718Z,96571.53
2022-11-24T00:10:35.477Z,96578.16
2022-11-24T00:14:38.257Z,96574.84
2022-11-24T00:18:42.425Z,96578.53
2022-11-24T00:22:45.171Z,96578.31
2022-11-24T00:26:49.316Z,96583.03
2022-11-24T00:30:52.039Z,96579.56
2022-11-24T00:34:54.849Z,96587.38
2022-11-24T00:38:59.608Z,96585.31
2022-11-24T00:43:03.734Z,96596.00
2022-11-24T00:47:06.653Z,96609.38
2022-11-24T00:51:11.622Z,96611.19
2022-11-24T00:55:14.471Z,96613.63
2022-11-24T00:59:18.550Z,96621.19
2022-11-24T01:03:22.578Z,96624.88
2022-11-24T01:07:25.314Z,96619.91
2022-11-24T01:11:29.667Z,96631.25
2022-11-24T01:15:36.399Z,96622.41
2022-11-24T01:19:39.835Z,96623.88
2022-11-24T01:23:45.817Z,96635.66
2022-11-24T01:27:48.673Z,96649.66
2022-11-24T01:31:52.794Z,96641.63
2022-11-24T01:35:55.656Z,96648.84
2022-11-24T01:39:58.394Z,96656.00
2022-11-24T01:44:01.094Z,96667.78
2022-11-24T01:48:08.519Z,96665.50
2022-11-24T01:52:15.928Z,96676.44
2022-11-24T01:56:19.622Z,96690.63
2022-11-24T02:00:22.609Z,96699.09
2022-11-24T02:04:30.780Z,96695.97
2022-11-24T02:08:40.276Z,96702.41
2022-11-24T02:12:46.850Z,96699.09
2022-11-24T02:16:51.531Z,96710.25
2022-11-24T02:20:56.405Z,96710.88
2022-11-24T02:25:07.844Z,96720.81
2022-11-24T02:29:12.966Z,96718.41
2022-11-24T02:33:16.491Z,96722.38
2022-11-24T02:37:19.162Z,96726.03
2022-11-24T02:41:23.836Z,96734.78
2022-11-24T02:45:29.001Z,96742.41
2022-11-24T02:49:31.748Z,96746.19
2022-11-24T02:53:34.446Z,96742.31
2022-11-24T02:57:37.161Z,96752.06
2022-11-24T03:01:41.308Z,96766.72
2022-11-24T03:05:44.127Z,96765.50
2022-11-24T03:09:46.844Z,96771.28
2022-11-24T03:13:50.611Z,96775.81
2022-11-24T03:17:57.563Z,96780.78
2022-11-24T03:22:00.514Z,96786.59
2022-11-24T03:26:10.230Z,96780.41
2022-11-24T03:30:13.757Z,96773.25
2022-11-24T03:34:17.814Z,96793.34
2022-11-24T03:38:20.506Z,96781.59
2022-11-24T03:42:23.244Z,96788.44
2022-11-24T03:46:26.071Z,96800.59
2022-11-24T03:50:30.239Z,96804.53
2022-11-24T03:54:33.031Z,96811.59
2022-11-24T03:58:35.959Z,96819.91
2022-11-24T04:02:38.933Z,96811.66
2022-11-24T04:06:43.306Z,96818.31
2022-11-24T04:10:45.931Z,96819.56
2022-11-24T04:14:48.642Z,96822.47
2022-11-24T04:18:53.355Z,96834.09
2022-11-24T04:22:57.442Z,96835.72
2022-11-24T04:27:00.276Z,96835.16
2022-11-24T04:31:03.320Z,96830.81
2022-11-24T04:35:06.706Z,96824.47
2022-11-24T04:39:24.292Z,96825.53
